Observation data for Jayton on 07/03/2020      Previous  Date  Next       Current Mesonet Observations  Soil Data  Daily Summary Page  Observations in Plain Language
KJTS 030500Z 09006KT 27/20 A30 RMK A01 T02720203  RH  070%=      5-min Rain = 0
KJTS 030505Z 09006KT 27/20 A30 RMK A01 T02710204  RH  071%=      5-min Rain = 0
KJTS 030510Z 09006KT 27/21 A30 RMK A01 T02690205  RH  072%=      5-min Rain = 0
KJTS 030515Z 11006KT 27/21 A30 RMK A01 T02670206  RH  073%=      5-min Rain = 0
KJTS 030520Z 12007KT 27/21 A2999 RMK A01 T02660206  RH  074%=      5-min Rain = 0
KJTS 030525Z 11007KT 27/21 A30 RMK A01 T02650206  RH  075%=      5-min Rain = 0
KJTS 030530Z 11007KT 27/21 A30 RMK A01 T02650206  RH  075%=      5-min Rain = 0
KJTS 030535Z 12007KT 26/21 A30 RMK A01 T02640207  RH  075%=      5-min Rain = 0
KJTS 030540Z 13006KT 27/21 A30 RMK A01 T02660205  RH  074%=      5-min Rain = 0
KJTS 030545Z 14006KT 27/20 A2999 RMK A01 T02680204  RH  072%=      5-min Rain = 0
KJTS 030550Z 13006KT 27/20 A2999 RMK A01 T02680203  RH  071%=      5-min Rain = 0
KJTS 030555Z 13005KT 27/20 A2999 RMK A01 T02660202  RH  072%=      5-min Rain = 0
KJTS 030600Z 14005KT 27/20 A2999 RMK A01 T02650201  RH  072%=      5-min Rain = 0
KJTS 030605Z 14004KT 26/20 A2998 RMK A01 T02620201  RH  073%=      5-min Rain = 0
KJTS 030610Z 14004KT 26/20 A2998 RMK A01 T02610200  RH  074%=      5-min Rain = 0
KJTS 030615Z 15005KT 26/20 A2998 RMK A01 T02600199  RH  073%=      5-min Rain = 0
KJTS 030620Z 15005KT 26/20 A2998 RMK A01 T02600197  RH  072%=      5-min Rain = 0
KJTS 030625Z 16005KT 26/20 A2998 RMK A01 T02610196  RH  071%=      5-min Rain = 0
KJTS 030630Z 17006KT 26/20 A2998 RMK A01 T02610195  RH  071%=      5-min Rain = 0
KJTS 030635Z 17006KT 26/19 A2998 RMK A01 T02600194  RH  071%=      5-min Rain = 0
KJTS 030640Z 17005KT 26/19 A2998 RMK A01 T02590192  RH  070%=      5-min Rain = 0
KJTS 030645Z 16005KT 26/19 A2998 RMK A01 T02580189  RH  069%=      5-min Rain = 0
KJTS 030650Z 16004KT 26/19 A2997 RMK A01 T02570187  RH  069%=      5-min Rain = 0
KJTS 030655Z 17004KT 26/19 A2997 RMK A01 T02570186  RH  068%=      5-min Rain = 0
KJTS 030700Z 17004KT 26/18 A2997 RMK A01 T02560184  RH  068%=      5-min Rain = 0
KJTS 030705Z 17003KT 26/18 A2997 RMK A01 T02560183  RH  068%=      5-min Rain = 0
KJTS 030710Z 15003KT 26/18 A2997 RMK A01 T02550183  RH  068%=      5-min Rain = 0
KJTS 030715Z 15003KT 25/18 A2997 RMK A01 T02530183  RH  069%=      5-min Rain = 0
KJTS 030720Z 14003KT 25/18 A2997 RMK A01 T02520183  RH  069%=      5-min Rain = 0
KJTS 030725Z 14003KT 25/18 A2997 RMK A01 T02500183  RH  070%=      5-min Rain = 0
KJTS 030730Z 14004KT 25/18 A2997 RMK A01 T02470184  RH  072%=      5-min Rain = 0
KJTS 030735Z 16004KT 25/18 A2996 RMK A01 T02450184  RH  073%=      5-min Rain = 0
KJTS 030740Z 16004KT 25/18 A2996 RMK A01 T02470180  RH  070%=      5-min Rain = 0
KJTS 030745Z 15004KT 25/18 A2996 RMK A01 T02480183  RH  071%=      5-min Rain = 0
KJTS 030750Z 15004KT 25/18 A2996 RMK A01 T02450182  RH  071%=      5-min Rain = 0
KJTS 030755Z 17004KT 25/18 A2996 RMK A01 T02470180  RH  070%=      5-min Rain = 0
KJTS 030800Z 17004KT 25/18 A2996 RMK A01 T02480179  RH  069%=      5-min Rain = 0
KJTS 030805Z 15003KT 25/18 A2996 RMK A01 T02480182  RH  070%=      5-min Rain = 0
KJTS 030810Z 15003KT 24/18 A2997 RMK A01 T02430181  RH  072%=      5-min Rain = 0
KJTS 030815Z 14003KT 24/18 A2997 RMK A01 T02420180  RH  072%=      5-min Rain = 0
KJTS 030820Z 14003KT 24/18 A2997 RMK A01 T02430179  RH  071%=      5-min Rain = 0
KJTS 030825Z 13004KT 24/18 A2997 RMK A01 T02410181  RH  073%=      5-min Rain = 0
KJTS 030830Z 13004KT 24/18 A2998 RMK A01 T02390182  RH  074%=      5-min Rain = 0
KJTS 030835Z 12004KT 24/18 A2998 RMK A01 T02370183  RH  076%=      5-min Rain = 0
KJTS 030840Z 12005KT 23/19 A2998 RMK A01 T02330186  RH  079%=      5-min Rain = 0
KJTS 030845Z 12004KT 23/19 A2998 RMK A01 T02310186  RH  080%=      5-min Rain = 0
KJTS 030850Z 12004KT 23/19 A2998 RMK A01 T02310186  RH  080%=      5-min Rain = 0
KJTS 030855Z 13004KT 23/19 A2998 RMK A01 T02310185  RH  080%=      5-min Rain = 0
KJTS 030900Z 13004KT 23/19 A2998 RMK A01 T02310185  RH  080%=      5-min Rain = 0
KJTS 030905Z 13004KT 23/19 A2998 RMK A01 T02320185  RH  079%=      5-min Rain = 0
KJTS 030910Z 13004KT 23/19 A2998 RMK A01 T02320185  RH  079%=      5-min Rain = 0
KJTS 030915Z 13004KT 23/19 A2998 RMK A01 T02320186  RH  079%=      5-min Rain = 0
KJTS 030920Z 13005KT 23/19 A2998 RMK A01 T02300187  RH  081%=      5-min Rain = 0
KJTS 030925Z 12005KT 23/19 A2998 RMK A01 T02260187  RH  083%=      5-min Rain = 0
KJTS 030930Z 14005KT 23/18 A2998 RMK A01 T02270183  RH  080%=      5-min Rain = 0
KJTS 030935Z 14005KT 23/18 A2998 RMK A01 T02320180  RH  076%=      5-min Rain = 0
KJTS 030940Z 15005KT 24/18 A2998 RMK A01 T02350179  RH  075%=      5-min Rain = 0
KJTS 030945Z 16005KT 24/18 A2998 RMK A01 T02360178  RH  073%=      5-min Rain = 0
KJTS 030950Z 17004KT 24/18 A2999 RMK A01 T02380177  RH  072%=      5-min Rain = 0
KJTS 030955Z 17004KT 24/18 A2999 RMK A01 T02390176  RH  072%=      5-min Rain = 0
KJTS 031000Z 16005KT 24/18 A2999 RMK A01 T02380176  RH  072%=      5-min Rain = 0
KJTS 031005Z 16005KT 24/18 A2999 RMK A01 T02370176  RH  072%=      5-min Rain = 0
KJTS 031010Z 16005KT 24/18 A2999 RMK A01 T02350177  RH  073%=      5-min Rain = 0
KJTS 031015Z 16004KT 23/18 A30 RMK A01 T02340176  RH  074%=      5-min Rain = 0
KJTS 031020Z 17004KT 24/18 A2999 RMK A01 T02350175  RH  073%=      5-min Rain = 0
KJTS 031025Z 18004KT 24/17 A2999 RMK A01 T02380174  RH  071%=      5-min Rain = 0
KJTS 031030Z 19003KT 24/18 A2999 RMK A01 T02390175  RH  071%=      5-min Rain = 0
KJTS 031035Z 20003KT 24/18 A2999 RMK A01 T02350176  RH  073%=      5-min Rain = 0
KJTS 031040Z 20003KT 24/18 A30 RMK A01 T02350176  RH  073%=      5-min Rain = 0
KJTS 031045Z 20003KT 24/17 A30 RMK A01 T02360174  RH  072%=      5-min Rain = 0
KJTS 031050Z 20003KT 24/17 A30 RMK A01 T02370173  RH  071%=      5-min Rain = 0
KJTS 031055Z 20002KT 24/17 A30 RMK A01 T02380174  RH  071%=      5-min Rain = 0
KJTS 031100Z 20002KT 24/17 A30 RMK A01 T02360174  RH  072%=      5-min Rain = 0
KJTS 031105Z 20001KT 23/17 A30 RMK A01 T02330173  RH  073%=      5-min Rain = 0
KJTS 031110Z 20000KT 23/17 A3001 RMK A01 T02320173  RH  073%=      5-min Rain = 0
KJTS 031115Z 20000KT 23/18 A3001 RMK A01 T02320176  RH  074%=      5-min Rain = 0
KJTS 031120Z 16000KT 23/18 A3001 RMK A01 T02310178  RH  076%=      5-min Rain = 0
KJTS 031125Z 00000KT 23/18 A3001 RMK A01 T02300176  RH  075%=      5-min Rain = 0
KJTS 031130Z 10000KT 23/17 A3001 RMK A01 T02310173  RH  074%=      5-min Rain = 0
KJTS 031135Z 10002KT 23/17 A3001 RMK A01 T02320174  RH  073%=      5-min Rain = 0
KJTS 031140Z 10003KT 23/18 A3002 RMK A01 T02290180  RH  078%=      5-min Rain = 0
KJTS 031145Z 10003KT 22/19 A3002 RMK A01 T02220186  RH  084%=      5-min Rain = 0
KJTS 031150Z 13002KT 22/19 A3002 RMK A01 T02210185  RH  084%=      5-min Rain = 0
KJTS 031155Z 15002KT 23/18 A3002 RMK A01 T02260182  RH  080%=      5-min Rain = 0
KJTS 031200Z 15002KT 23/19 A3002 RMK A01 T02250186  RH  083%=      5-min Rain = 0
KJTS 031205Z 16002KT 23/18 A3002 RMK A01 T02250184  RH  082%=      5-min Rain = 0
KJTS 031210Z 16001KT 23/18 A3002 RMK A01 T02270184  RH  081%=      5-min Rain = 0
KJTS 031215Z 19002KT 23/18 A3002 RMK A01 T02270184  RH  081%=      5-min Rain = 0
KJTS 031220Z 19002KT 23/19 A3002 RMK A01 T02270187  RH  082%=      5-min Rain = 0
KJTS 031225Z 17002KT 23/19 A3003 RMK A01 T02280187  RH  082%=      5-min Rain = 0
KJTS 031230Z 19004KT 23/18 A3002 RMK A01 T02300182  RH  078%=      5-min Rain = 0
KJTS 031235Z 19003KT 24/18 A3003 RMK A01 T02360177  RH  073%=      5-min Rain = 0
KJTS 031240Z 19004KT 24/18 A3003 RMK A01 T02390181  RH  074%=      5-min Rain = 0
KJTS 031245Z 19003KT 24/18 A3003 RMK A01 T02390181  RH  074%=      5-min Rain = 0
KJTS 031250Z 19003KT 24/18 A3003 RMK A01 T02400183  RH  074%=      5-min Rain = 0
KJTS 031255Z 20003KT 24/19 A3003 RMK A01 T02410185  RH  075%=      5-min Rain = 0
KJTS 031300Z 19003KT 24/18 A3003 RMK A01 T02420184  RH  074%=      5-min Rain = 0
KJTS 031305Z 19004KT 24/19 A3003 RMK A01 T02430186  RH  075%=      5-min Rain = 0
KJTS 031310Z 18005KT 25/19 A3003 RMK A01 T02460187  RH  074%=      5-min Rain = 0
KJTS 031315Z 19005KT 25/19 A3004 RMK A01 T02490189  RH  073%=      5-min Rain = 0
KJTS 031320Z 19005KT 25/19 A3004 RMK A01 T02520189  RH  072%=      5-min Rain = 0
KJTS 031325Z 20005KT 26/19 A3004 RMK A01 T02550188  RH  070%=      5-min Rain = 0
KJTS 031330Z 20006KT 26/19 A3004 RMK A01 T02580189  RH  070%=      5-min Rain = 0
KJTS 031335Z 21006KT 26/19 A3004 RMK A01 T02590190  RH  070%=      5-min Rain = 0
KJTS 031340Z 21006KT 26/19 A3004 RMK A01 T02600191  RH  069%=      5-min Rain = 0
KJTS 031345Z 21007KT 26/19 A3004 RMK A01 T02620192  RH  069%=      5-min Rain = 0
KJTS 031350Z 21006KT 27/19 A3004 RMK A01 T02650194  RH  069%=      5-min Rain = 0
KJTS 031355Z 22007KT 27/19 A3004 RMK A01 T02680194  RH  068%=      5-min Rain = 0
KJTS 031400Z 21007KT 27/19 A3004 RMK A01 T02700194  RH  067%=      5-min Rain = 0
KJTS 031405Z 21009KT 27/19 A3004 RMK A01 T02710193  RH  066%=      5-min Rain = 0
KJTS 031410Z 21008G13KT 27/19 A3004 RMK A01 T02710194  RH  066%=      5-min Rain = 0
KJTS 031415Z 21007KT 28/20 A3005 RMK A01 T02760195  RH  065%=      5-min Rain = 0
KJTS 031420Z 21006KT 28/20 A3005 RMK A01 T02800197  RH  064%=      5-min Rain = 0
KJTS 031425Z 20008KT 28/20 A3005 RMK A01 T02840195  RH  062%=      5-min Rain = 0
KJTS 031430Z 22008KT 28/19 A3005 RMK A01 T02840194  RH  061%=      5-min Rain = 0
KJTS 031435Z 21008KT 29/19 A3005 RMK A01 T02870194  RH  061%=      5-min Rain = 0
KJTS 031440Z 21009KT 29/20 A3005 RMK A01 T02910196  RH  060%=      5-min Rain = 0
KJTS 031445Z 22008KT 29/20 A3005 RMK A01 T02930196  RH  059%=      5-min Rain = 0
KJTS 031450Z 22007KT 30/20 A3005 RMK A01 T02960198  RH  059%=      5-min Rain = 0
KJTS 031455Z 22009KT 30/20 A3005 RMK A01 T02950195  RH  058%=      5-min Rain = 0
KJTS 031500Z 21007KT 30/20 A3005 RMK A01 T02970197  RH  058%=      5-min Rain = 0
KJTS 031505Z 20008KT 30/20 A3005 RMK A01 T03000196  RH  057%=      5-min Rain = 0
KJTS 031510Z 20009KT 30/20 A3005 RMK A01 T03030196  RH  056%=      5-min Rain = 0
KJTS 031515Z 20008KT 31/20 A3005 RMK A01 T03050195  RH  055%=      5-min Rain = 0
KJTS 031520Z 21008KT 31/20 A3005 RMK A01 T03050197  RH  056%=      5-min Rain = 0
KJTS 031525Z 20008KT 31/20 A3005 RMK A01 T03090197  RH  054%=      5-min Rain = 0
KJTS 031530Z 20008KT 31/20 A3005 RMK A01 T03090195  RH  054%=      5-min Rain = 0
KJTS 031535Z 20008KT 31/19 A3005 RMK A01 T03110194  RH  053%=      5-min Rain = 0
KJTS 031540Z 20007KT 31/19 A3005 RMK A01 T03110194  RH  053%=      5-min Rain = 0
KJTS 031545Z 22008KT 31/20 A3005 RMK A01 T03130196  RH  053%=      5-min Rain = 0
KJTS 031550Z 22007KT 31/20 A3005 RMK A01 T03140197  RH  053%=      5-min Rain = 0
KJTS 031555Z 21006KT 31/19 A3005 RMK A01 T03140194  RH  052%=      5-min Rain = 0
KJTS 031600Z 21008KT 32/19 A3005 RMK A01 T03180190  RH  049%=      5-min Rain = 0
KJTS 031605Z 20007KT 32/19 A3005 RMK A01 T03190191  RH  049%=      5-min Rain = 0
KJTS 031610Z 20006KT 32/19 A3005 RMK A01 T03200190  RH  049%=      5-min Rain = 0
KJTS 031615Z 21007KT 32/19 A3005 RMK A01 T03220191  RH  049%=      5-min Rain = 0
KJTS 031620Z 21006KT 32/19 A3005 RMK A01 T03220188  RH  048%=      5-min Rain = 0
KJTS 031625Z 21006KT 33/19 A3005 RMK A01 T03250190  RH  047%=      5-min Rain = 0
KJTS 031630Z 20006KT 32/19 A3005 RMK A01 T03240189  RH  047%=      5-min Rain = 0
KJTS 031635Z 22006G11KT 33/19 A3005 RMK A01 T03260189  RH  047%=      5-min Rain = 0
KJTS 031640Z 20005KT 33/19 A3004 RMK A01 T03270189  RH  047%=      5-min Rain = 0
KJTS 031645Z 18004KT 33/19 A3004 RMK A01 T03290190  RH  046%=      5-min Rain = 0
KJTS 031650Z 19006KT 33/19 A3004 RMK A01 T03310187  RH  045%=      5-min Rain = 0
KJTS 031655Z 19004G9KT 34/19 A3004 RMK A01 T03350187  RH  044%=      5-min Rain = 0
KJTS 031700Z 19006KT 34/18 A3004 RMK A01 T03350181  RH  042%=      5-min Rain = 0
KJTS 031705Z 19005KT 34/19 A3004 RMK A01 T03370187  RH  043%=      5-min Rain = 0
KJTS 031710Z 22006KT 34/18 A3004 RMK A01 T03360181  RH  042%=      5-min Rain = 0
KJTS 031715Z 17006KT 34/17 A3004 RMK A01 T03390173  RH  039%=      5-min Rain = 0
KJTS 031720Z 20005KT 34/17 A3004 RMK A01 T03400171  RH  038%=      5-min Rain = 0
KJTS 031725Z 22004KT 34/17 A3004 RMK A01 T03400168  RH  038%=      5-min Rain = 0
KJTS 031730Z 20005KT 34/17 A3004 RMK A01 T03440172  RH  038%=      5-min Rain = 0
KJTS 031735Z 17005KT 35/17 A3004 RMK A01 T03470169  RH  037%=      5-min Rain = 0
KJTS 031740Z 14005KT 35/17 A3004 RMK A01 T03460166  RH  036%=      5-min Rain = 0
KJTS 031745Z 17003KT 35/16 A3004 RMK A01 T03500164  RH  035%=      5-min Rain = 0
KJTS 031750Z 20004KT 35/17 A3003 RMK A01 T03480170  RH  037%=      5-min Rain = 0
KJTS 031755Z 17005KT 35/17 A3003 RMK A01 T03500167  RH  036%=      5-min Rain = 0
KJTS 031800Z 16006KT 35/16 A3003 RMK A01 T03510164  RH  034%=      5-min Rain = 0
KJTS 031805Z 16004G10KT 35/16 A3003 RMK A01 T03510161  RH  034%=      5-min Rain = 0
KJTS 031810Z 12004G9KT 35/16 A3003 RMK A01 T03480159  RH  034%=      5-min Rain = 0
KJTS 031815Z 14004G10KT 35/17 A3003 RMK A01 T03520165  RH  035%=      5-min Rain = 0
KJTS 031820Z 14006KT 35/17 A3003 RMK A01 T03540167  RH  035%=      5-min Rain = 0
KJTS 031825Z 17002KT 35/16 A3003 RMK A01 T03530160  RH  033%=      5-min Rain = 0
KJTS 031830Z 13007G12KT 35/17 A3002 RMK A01 T03540166  RH  035%=      5-min Rain = 0
KJTS 031835Z 11006KT 35/17 A3002 RMK A01 T03510166  RH  035%=      5-min Rain = 0
KJTS 031840Z 07006KT 35/17 A3002 RMK A01 T03510166  RH  035%=      5-min Rain = 0
KJTS 031845Z 06003KT 35/17 A3002 RMK A01 T03520165  RH  034%=      5-min Rain = 0
KJTS 031850Z 14005KT 35/17 A3002 RMK A01 T03540165  RH  034%=      5-min Rain = 0
KJTS 031855Z 10004KT 36/17 A3001 RMK A01 T03560166  RH  034%=      5-min Rain = 0
KJTS 031900Z 12006KT 36/17 A3001 RMK A01 T03560165  RH  034%=      5-min Rain = 0
KJTS 031905Z 13004KT 36/16 A3001 RMK A01 T03550164  RH  034%=      5-min Rain = 0
KJTS 031910Z 11006G11KT 36/16 A3001 RMK A01 T03580164  RH  033%=      5-min Rain = 0
KJTS 031915Z 12005KT 36/17 A3001 RMK A01 T03590167  RH  034%=      5-min Rain = 0
KJTS 031920Z 13006G14KT 36/16 A3001 RMK A01 T03600159  RH  032%=      5-min Rain = 0
KJTS 031925Z 13008G16KT 35/16 A3001 RMK A01 T03510157  RH  033%=      5-min Rain = 0
KJTS 031930Z 17004KT 35/15 A30 RMK A01 T03520153  RH  032%=      5-min Rain = 0
KJTS 031935Z 13006KT 36/16 A30 RMK A01 T03620160  RH  032%=      5-min Rain = 0
KJTS 031940Z 11010KT 36/16 A30 RMK A01 T03590158  RH  032%=      5-min Rain = 0
KJTS 031945Z 11010KT 36/16 A30 RMK A01 T03560160  RH  033%=      5-min Rain = 0
KJTS 031950Z 10008G15KT 36/16 A30 RMK A01 T03590157  RH  032%=      5-min Rain = 0
KJTS 031955Z 10008KT 35/16 A30 RMK A01 T03540162  RH  034%=      5-min Rain = 0
KJTS 032000Z 11007KT 36/16 A30 RMK A01 T03600161  RH  032%=      5-min Rain = 0
KJTS 032005Z 10007G13KT 36/16 A30 RMK A01 T03630159  RH  031%=      5-min Rain = 0
KJTS 032010Z 15008G14KT 37/15 A30 RMK A01 T03680153  RH  029%=      5-min Rain = 0
KJTS 032015Z 09004KT 37/15 A2999 RMK A01 T03650147  RH  029%=      5-min Rain = 0
KJTS 032020Z 14008G15KT 37/16 A2999 RMK A01 T03650158  RH  031%=      5-min Rain = 0
KJTS 032025Z 14007G14KT 37/16 A2999 RMK A01 T03660163  RH  032%=      5-min Rain = 0
KJTS 032030Z 11011KT 36/16 A2999 RMK A01 T03630161  RH  032%=      5-min Rain = 0
KJTS 032035Z 08009KT 36/16 A2999 RMK A01 T03640160  RH  031%=      5-min Rain = 0
KJTS 032040Z 10008KT 37/16 A2999 RMK A01 T03660158  RH  031%=      5-min Rain = 0
KJTS 032045Z 11006G11KT 36/15 A2998 RMK A01 T03630151  RH  030%=      5-min Rain = 0
KJTS 032050Z 12007KT 37/15 A2998 RMK A01 T03650153  RH  030%=      5-min Rain = 0
KJTS 032055Z 14007G13KT 37/15 A2998 RMK A01 T03670153  RH  029%=      5-min Rain = 0
KJTS 032100Z 13011KT 37/15 A2998 RMK A01 T03660153  RH  030%=      5-min Rain = 0
KJTS 032105Z 13006KT 37/15 A2998 RMK A01 T03650151  RH  029%=      5-min Rain = 0
KJTS 032110Z 12009G15KT 37/16 A2998 RMK A01 T03660157  RH  030%=      5-min Rain = 0
KJTS 032115Z 11011G17KT 37/16 A2998 RMK A01 T03670161  RH  031%=      5-min Rain = 0
KJTS 032120Z 11010KT 36/15 A2998 RMK A01 T03640154  RH  030%=      5-min Rain = 0
KJTS 032125Z 08007KT 37/16 A2997 RMK A01 T03670157  RH  030%=      5-min Rain = 0
KJTS 032130Z 09006G11KT 37/15 A2997 RMK A01 T03680154  RH  029%=      5-min Rain = 0
KJTS 032135Z 13008G14KT 37/16 A2997 RMK A01 T03700156  RH  030%=      5-min Rain = 0
KJTS 032140Z 14010KT 37/16 A2997 RMK A01 T03690156  RH  030%=      5-min Rain = 0
KJTS 032145Z 12009KT 37/16 A2997 RMK A01 T03670158  RH  030%=      5-min Rain = 0
KJTS 032150Z 12006KT 37/15 A2997 RMK A01 T03660154  RH  030%=      5-min Rain = 0
KJTS 032155Z 10007KT 37/16 A2997 RMK A01 T03670156  RH  030%=      5-min Rain = 0
KJTS 032200Z 09006KT 37/15 A2996 RMK A01 T03660151  RH  029%=      5-min Rain = 0
KJTS 032205Z 09004KT 37/15 A2996 RMK A01 T03670150  RH  029%=      5-min Rain = 0
KJTS 032210Z 12004KT 37/15 A2996 RMK A01 T03690152  RH  029%=      5-min Rain = 0
KJTS 032215Z 10009G17KT 37/16 A2996 RMK A01 T03680156  RH  030%=      5-min Rain = 0
KJTS 032220Z 11010G17KT 36/16 A2996 RMK A01 T03560155  RH  032%=      5-min Rain = 0
KJTS 032225Z 12008KT 35/16 A2996 RMK A01 T03510155  RH  033%=      5-min Rain = 0
KJTS 032230Z 09008KT 36/16 A2995 RMK A01 T03580159  RH  032%=      5-min Rain = 0
KJTS 032235Z 10008KT 36/16 A2996 RMK A01 T03610156  RH  031%=      5-min Rain = 0
KJTS 032240Z 13007G13KT 37/16 A2995 RMK A01 T03650158  RH  031%=      5-min Rain = 0
KJTS 032245Z 11009G14KT 36/15 A2995 RMK A01 T03630152  RH  030%=      5-min Rain = 0
KJTS 032250Z 12009KT 36/16 A2995 RMK A01 T03640157  RH  031%=      5-min Rain = 0
KJTS 032255Z 10009KT 36/15 A2995 RMK A01 T03630154  RH  030%=      5-min Rain = 0
KJTS 032300Z 10010KT 36/15 A2995 RMK A01 T03620153  RH  030%=      5-min Rain = 0
KJTS 032305Z 10010KT 36/15 A2995 RMK A01 T03600150  RH  030%=      5-min Rain = 0
KJTS 032310Z 11010KT 36/15 A2994 RMK A01 T03610153  RH  030%=      5-min Rain = 0
KJTS 032315Z 11008KT 36/15 A2994 RMK A01 T03620152  RH  030%=      5-min Rain = 0
KJTS 032320Z 12008KT 36/15 A2994 RMK A01 T03620150  RH  030%=      5-min Rain = 0
KJTS 032325Z 11007KT 36/16 A2994 RMK A01 T03620155  RH  031%=      5-min Rain = 0
KJTS 032330Z 11009KT 36/15 A2994 RMK A01 T03610153  RH  030%=      5-min Rain = 0
KJTS 032335Z 11009KT 36/16 A2994 RMK A01 T03600155  RH  031%=      5-min Rain = 0
KJTS 032340Z 11010KT 36/15 A2994 RMK A01 T03580152  RH  031%=      5-min Rain = 0
KJTS 032345Z 10010KT 36/15 A2994 RMK A01 T03580150  RH  030%=      5-min Rain = 0
KJTS 032350Z 11009KT 36/15 A2994 RMK A01 T03570151  RH  031%=      5-min Rain = 0
KJTS 032355Z 11010KT 36/15 A2994 RMK A01 T03560151  RH  031%=      5-min Rain = 0
KJTS 040000Z 11010KT 36/15 A2994 RMK A01 T03550152  RH  031%=      5-min Rain = 0
KJTS 040005Z 11009KT 35/15 A2994 RMK A01 T03540154  RH  032%=      5-min Rain = 0
KJTS 040010Z 10009KT 35/15 A2994 RMK A01 T03530151  RH  031%=      5-min Rain = 0
KJTS 040015Z 10010KT 35/15 A2994 RMK A01 T03520151  RH  032%=      5-min Rain = 0
KJTS 040020Z 10010G15KT 35/15 A2994 RMK A01 T03500149  RH  031%=      5-min Rain = 0
KJTS 040025Z 10010KT 35/15 A2994 RMK A01 T03490147  RH  031%=      5-min Rain = 0
KJTS 040030Z 10010KT 35/15 A2994 RMK A01 T03480147  RH  031%=      5-min Rain = 0
KJTS 040035Z 10011KT 35/15 A2994 RMK A01 T03470148  RH  032%=      5-min Rain = 0
KJTS 040040Z 10012KT 35/15 A2994 RMK A01 T03460145  RH  031%=      5-min Rain = 0
KJTS 040045Z 10010KT 35/15 A2994 RMK A01 T03450146  RH  032%=      5-min Rain = 0
KJTS 040050Z 10009KT 34/15 A2994 RMK A01 T03430146  RH  032%=      5-min Rain = 0
KJTS 040055Z 10008KT 34/15 A2995 RMK A01 T03410151  RH  034%=      5-min Rain = 0
KJTS 040100Z 10007KT 34/15 A2995 RMK A01 T03370153  RH  035%=      5-min Rain = 0
KJTS 040105Z 10008KT 33/15 A2995 RMK A01 T03330151  RH  035%=      5-min Rain = 0
KJTS 040110Z 09008KT 33/15 A2995 RMK A01 T03310152  RH  036%=      5-min Rain = 0
KJTS 040115Z 09008KT 33/15 A2995 RMK A01 T03300153  RH  036%=      5-min Rain = 0
KJTS 040120Z 09007KT 33/16 A2995 RMK A01 T03270156  RH  037%=      5-min Rain = 0
KJTS 040125Z 09008KT 32/16 A2995 RMK A01 T03240156  RH  038%=      5-min Rain = 0
KJTS 040130Z 09008KT 32/15 A2995 RMK A01 T03240154  RH  038%=      5-min Rain = 0
KJTS 040135Z 09007KT 32/16 A2995 RMK A01 T03210156  RH  039%=      5-min Rain = 0
KJTS 040140Z 09007KT 32/16 A2996 RMK A01 T03160159  RH  041%=      5-min Rain = 0
KJTS 040145Z 09007KT 31/16 A2996 RMK A01 T03120160  RH  042%=      5-min Rain = 0
KJTS 040150Z 09007KT 31/16 A2996 RMK A01 T03090161  RH  043%=      5-min Rain = 0
KJTS 040155Z 10008KT 31/16 A2996 RMK A01 T03080160  RH  043%=      5-min Rain = 0
KJTS 040200Z 10007KT 31/16 A2996 RMK A01 T03060160  RH  043%=      5-min Rain = 0
KJTS 040205Z 10007KT 30/16 A2996 RMK A01 T03040160  RH  044%=      5-min Rain = 0
KJTS 040210Z 10007KT 30/16 A2996 RMK A01 T03020161  RH  045%=      5-min Rain = 0
KJTS 040215Z 10008KT 30/16 A2996 RMK A01 T03010161  RH  045%=      5-min Rain = 0
KJTS 040220Z 10007KT 30/16 A2997 RMK A01 T03000162  RH  045%=      5-min Rain = 0
KJTS 040225Z 10007KT 30/16 A2997 RMK A01 T02980163  RH  046%=      5-min Rain = 0
KJTS 040230Z 11007KT 30/16 A2997 RMK A01 T02950164  RH  047%=      5-min Rain = 0
KJTS 040235Z 11007KT 29/16 A2997 RMK A01 T02930164  RH  048%=      5-min Rain = 0
KJTS 040240Z 10007KT 29/17 A2997 RMK A01 T02920165  RH  048%=      5-min Rain = 0
KJTS 040245Z 10007KT 29/17 A2998 RMK A01 T02930165  RH  048%=      5-min Rain = 0
KJTS 040250Z 09006KT 29/17 A2998 RMK A01 T02880168  RH  051%=      5-min Rain = 0
KJTS 040255Z 09007KT 29/17 A2998 RMK A01 T02860169  RH  051%=      5-min Rain = 0
KJTS 040300Z 09007KT 29/17 A2998 RMK A01 T02860169  RH  052%=      5-min Rain = 0
KJTS 040305Z 10007KT 28/17 A2998 RMK A01 T02820171  RH  054%=      5-min Rain = 0
KJTS 040310Z 10007KT 28/17 A2998 RMK A01 T02790172  RH  055%=      5-min Rain = 0
KJTS 040315Z 11008KT 28/17 A2998 RMK A01 T02830169  RH  053%=      5-min Rain = 0
KJTS 040320Z 11007KT 28/17 A2999 RMK A01 T02830169  RH  052%=      5-min Rain = 0
KJTS 040325Z 11007KT 28/17 A2999 RMK A01 T02810170  RH  054%=      5-min Rain = 0
KJTS 040330Z 11007KT 28/17 A2999 RMK A01 T02780170  RH  055%=      5-min Rain = 0
KJTS 040335Z 12007KT 28/17 A2999 RMK A01 T02780170  RH  054%=      5-min Rain = 0
KJTS 040340Z 13006KT 28/17 A2999 RMK A01 T02800168  RH  053%=      5-min Rain = 0
KJTS 040345Z 13007KT 28/17 A2999 RMK A01 T02840166  RH  051%=      5-min Rain = 0
KJTS 040350Z 12007KT 28/17 A2999 RMK A01 T02840167  RH  052%=      5-min Rain = 0
KJTS 040355Z 12007KT 28/17 A30 RMK A01 T02800168  RH  053%=      5-min Rain = 0
KJTS 040400Z 12007KT 28/17 A30 RMK A01 T02810166  RH  052%=      5-min Rain = 0
KJTS 040405Z 11007KT 28/17 A30 RMK A01 T02750169  RH  055%=      5-min Rain = 0
KJTS 040410Z 11006KT 27/17 A30 RMK A01 T02700171  RH  058%=      5-min Rain = 0
KJTS 040415Z 11006KT 27/17 A30 RMK A01 T02680171  RH  058%=      5-min Rain = 0
KJTS 040420Z 11007KT 27/17 A30 RMK A01 T02680171  RH  058%=      5-min Rain = 0
KJTS 040425Z 11007KT 27/17 A3001 RMK A01 T02680171  RH  058%=      5-min Rain = 0
KJTS 040430Z 11007KT 27/17 A30 RMK A01 T02690170  RH  058%=      5-min Rain = 0
KJTS 040435Z 12008KT 27/17 A30 RMK A01 T02700170  RH  057%=      5-min Rain = 0
KJTS 040440Z 12008KT 27/17 A30 RMK A01 T02720170  RH  057%=      5-min Rain = 0
KJTS 040445Z 13008KT 28/17 A30 RMK A01 T02750170  RH  055%=      5-min Rain = 0
KJTS 040450Z 13008KT 28/17 A30 RMK A01 T02760170  RH  055%=      5-min Rain = 0
KJTS 040455Z 13008KT 28/17 A30 RMK A01 T02760170  RH  055%=      5-min Rain = 0

Page generated in 0.0163 seconds.